createdAt,value
2019-01-24T00:00:02.206Z,62.33
2019-01-24T00:02:34.967Z,62.30
2019-01-24T00:05:07.049Z,60.20
2019-01-24T00:07:38.253Z,55.97
2019-01-24T00:10:10.263Z,60.03
2019-01-24T00:12:41.336Z,71.90
2019-01-24T00:15:12.567Z,59.43
2019-01-24T00:17:43.767Z,64.20
2019-01-24T00:20:16.819Z,65.37
2019-01-24T00:22:47.923Z,61.43
2019-01-24T00:25:20.187Z,64.63
2019-01-24T00:27:51.263Z,65.27
2019-01-24T00:30:22.417Z,65.37
2019-01-24T00:32:53.520Z,65.77
2019-01-24T00:35:24.621Z,72.20
2019-01-24T00:37:55.717Z,65.83
2019-01-24T00:40:26.821Z,64.37
2019-01-24T00:42:57.971Z,69.03
2019-01-24T00:45:29.144Z,67.30
2019-01-24T00:48:00.202Z,60.33
2019-01-24T00:50:31.275Z,68.03
2019-01-24T00:53:02.395Z,63.47
2019-01-24T00:55:33.711Z,61.33
2019-01-24T00:58:04.773Z,60.00
2019-01-24T01:00:35.859Z,59.33
2019-01-24T01:03:06.951Z,59.80
2019-01-24T01:05:38.181Z,59.23
2019-01-24T01:08:28.343Z,64.17
2019-01-24T01:10:59.437Z,68.93
2019-01-24T01:13:30.558Z,63.17
2019-01-24T01:16:01.623Z,65.93
2019-01-24T01:18:32.700Z,69.73
2019-01-24T01:21:15.672Z,64.03
2019-01-24T01:23:46.817Z,62.20
2019-01-24T01:26:17.920Z,64.13
2019-01-24T01:28:48.989Z,66.60
2019-01-24T01:31:20.075Z,62.60
2019-01-24T01:33:51.162Z,61.47
2019-01-24T01:36:22.256Z,62.07
2019-01-24T01:38:53.455Z,65.20
2019-01-24T01:41:24.553Z,66.13
2019-01-24T01:43:55.671Z,59.87
2019-01-24T01:46:26.787Z,62.87
2019-01-24T01:48:57.973Z,66.93
2019-01-24T01:51:29.124Z,67.40
2019-01-24T01:54:00.285Z,64.17
2019-01-24T01:56:31.792Z,63.37
2019-01-24T01:59:02.887Z,67.93
2019-01-24T02:01:34.047Z,62.17
2019-01-24T02:04:05.385Z,68.43
2019-01-24T02:06:36.528Z,66.72
2019-01-24T02:09:10.306Z,70.80
2019-01-24T02:11:41.387Z,65.57
2019-01-24T02:14:12.539Z,66.00
2019-01-24T02:16:43.729Z,66.33
2019-01-24T02:19:14.812Z,66.87
2019-01-24T02:21:45.969Z,62.87
2019-01-24T02:24:17.065Z,70.73
2019-01-24T02:26:48.231Z,78.50
2019-01-24T02:29:19.344Z,77.73
2019-01-24T02:31:50.399Z,82.45
2019-01-24T02:34:21.561Z,81.17
2019-01-24T02:36:52.684Z,81.15
2019-01-24T02:39:23.796Z,94.07
2019-01-24T02:41:54.917Z,93.22
2019-01-24T02:44:26.043Z,94.40
2019-01-24T02:46:57.131Z,104.95
2019-01-24T02:49:28.275Z,100.12
2019-01-24T02:51:59.494Z,96.15
2019-01-24T02:54:30.718Z,97.05
2019-01-24T02:57:02.052Z,102.55
2019-01-24T02:59:33.179Z,103.05
2019-01-24T03:02:04.637Z,105.97
2019-01-24T03:04:35.839Z,107.30
2019-01-24T03:07:07.035Z,91.12
2019-01-24T03:09:38.247Z,106.80
2019-01-24T03:12:10.527Z,94.75
2019-01-24T03:14:41.738Z,109.85
2019-01-24T03:17:12.966Z,101.55
2019-01-24T03:19:44.098Z,111.25
2019-01-24T03:22:15.200Z,106.27
2019-01-24T03:24:46.373Z,102.80
2019-01-24T03:27:17.482Z,113.62
2019-01-24T03:29:48.563Z,94.37
2019-01-24T03:32:19.664Z,97.33
2019-01-24T03:34:50.791Z,97.70
2019-01-24T03:37:21.857Z,100.82
2019-01-24T03:39:53.039Z,101.85
2019-01-24T03:42:24.115Z,95.85
2019-01-24T03:44:55.290Z,97.72
2019-01-24T03:47:26.428Z,95.70
2019-01-24T03:49:57.538Z,92.95
2019-01-24T03:52:28.605Z,95.83
2019-01-24T03:54:59.690Z,88.67
2019-01-24T03:57:31.144Z,95.67
2019-01-24T04:00:02.219Z,89.22
2019-01-24T04:02:33.371Z,93.37
2019-01-24T04:05:11.817Z,107.20
2019-01-24T04:07:38.675Z,93.20
2019-01-24T04:10:12.631Z,90.95
2019-01-24T04:12:43.738Z,101.10
2019-01-24T04:15:17.366Z,92.42
2019-01-24T04:17:48.535Z,98.00
2019-01-24T04:20:20.513Z,93.97
2019-01-24T04:22:51.632Z,83.20
2019-01-24T04:25:22.746Z,81.12
2019-01-24T04:27:53.891Z,103.07
2019-01-24T04:30:25.207Z,91.05
2019-01-24T04:32:56.384Z,81.08
2019-01-24T04:35:27.469Z,98.20
2019-01-24T04:37:58.688Z,98.67
2019-01-24T04:40:29.837Z,89.58
2019-01-24T04:43:00.927Z,98.45
2019-01-24T04:45:32.055Z,90.87
2019-01-24T04:48:03.143Z,90.85
2019-01-24T04:50:34.248Z,102.05
2019-01-24T04:53:05.426Z,97.55
2019-01-24T04:55:36.522Z,95.97
2019-01-24T04:58:07.857Z,84.45
2019-01-24T05:00:38.924Z,107.90
2019-01-24T05:03:10.135Z,98.72
2019-01-24T05:05:41.238Z,87.65
2019-01-24T05:08:12.327Z,108.97
2019-01-24T05:10:43.388Z,99.07
2019-01-24T05:13:14.571Z,101.45
2019-01-24T05:15:45.654Z,96.05
2019-01-24T05:18:16.734Z,111.75
2019-01-24T05:20:47.839Z,102.00
2019-01-24T05:23:18.971Z,101.38
2019-01-24T05:25:50.079Z,93.20
2019-01-24T05:28:21.215Z,92.95
2019-01-24T05:30:52.405Z,92.50
2019-01-24T05:33:23.564Z,97.02
2019-01-24T05:35:54.711Z,93.52
2019-01-24T05:38:25.809Z,82.80
2019-01-24T05:40:56.933Z,81.55
2019-01-24T05:43:28.027Z,99.72
2019-01-24T05:45:59.151Z,82.22
2019-01-24T05:48:31.321Z,92.70
2019-01-24T05:51:02.447Z,99.22
2019-01-24T05:53:33.572Z,86.63
2019-01-24T05:56:05.003Z,93.30
2019-01-24T05:58:36.461Z,95.50
2019-01-24T06:01:09.785Z,88.65
2019-01-24T06:03:41.070Z,82.10
2019-01-24T06:06:12.484Z,92.05
2019-01-24T06:08:43.667Z,76.50
2019-01-24T06:11:15.813Z,91.55
2019-01-24T06:13:47.049Z,80.38
2019-01-24T06:16:18.148Z,84.80
2019-01-24T06:18:49.241Z,81.42
2019-01-24T06:21:20.343Z,84.75
2019-01-24T06:23:51.484Z,92.82
2019-01-24T06:26:22.741Z,83.37
2019-01-24T06:28:53.953Z,76.77
2019-01-24T06:31:25.189Z,82.67
2019-01-24T06:33:56.267Z,82.50
2019-01-24T06:36:27.515Z,76.25
2019-01-24T06:38:58.636Z,77.58
2019-01-24T06:41:29.747Z,78.10
2019-01-24T06:44:01.075Z,73.83
2019-01-24T06:46:32.591Z,76.28
2019-01-24T06:49:03.984Z,74.95
2019-01-24T06:51:35.674Z,77.15
2019-01-24T06:54:06.739Z,79.62
2019-01-24T06:56:37.838Z,73.30
2019-01-24T06:59:09.368Z,85.62
2019-01-24T07:01:40.453Z,71.85
2019-01-24T07:04:11.563Z,63.38
2019-01-24T07:06:42.767Z,75.87
2019-01-24T07:09:14.109Z,71.20
2019-01-24T07:11:45.319Z,68.85
2019-01-24T07:14:16.351Z,70.85
2019-01-24T07:16:47.423Z,65.32
2019-01-24T07:19:18.579Z,73.25
2019-01-24T07:21:49.899Z,73.87
2019-01-24T07:24:21.508Z,74.15
2019-01-24T07:26:52.907Z,72.80
2019-01-24T07:29:24.001Z,64.27
2019-01-24T07:31:55.421Z,62.33
2019-01-24T07:34:26.577Z,68.75
2019-01-24T07:36:57.747Z,74.65
2019-01-24T07:39:28.861Z,68.57
2019-01-24T07:42:00.253Z,68.60
2019-01-24T07:44:31.364Z,77.80
2019-01-24T07:47:02.595Z,71.47
2019-01-24T07:49:33.771Z,71.45
2019-01-24T07:52:05.610Z,62.60
2019-01-24T07:54:36.691Z,75.90
2019-01-24T07:57:07.897Z,60.10
2019-01-24T07:59:39.275Z,67.55
2019-01-24T08:02:09.732Z,60.38
2019-01-24T08:04:40.848Z,62.40
2019-01-24T08:07:12.037Z,58.87
2019-01-24T08:09:43.679Z,65.50
2019-01-24T08:12:15.008Z,63.75
2019-01-24T08:14:46.103Z,49.93
2019-01-24T08:17:17.543Z,54.75
2019-01-24T08:19:48.969Z,50.15
2019-01-24T08:22:31.379Z,49.40
2019-01-24T08:25:14.122Z,53.87
2019-01-24T08:27:45.466Z,48.63
2019-01-24T08:30:25.135Z,50.12
2019-01-24T08:32:56.283Z,47.98
2019-01-24T08:35:27.368Z,45.80
2019-01-24T08:37:59.146Z,52.10
2019-01-24T08:40:30.294Z,52.13
2019-01-24T08:43:01.469Z,45.50
2019-01-24T08:45:32.615Z,49.93
2019-01-24T08:48:03.825Z,45.23
2019-01-24T08:50:35.245Z,45.38
2019-01-24T08:53:06.447Z,49.67
2019-01-24T08:55:42.721Z,45.37
2019-01-24T08:58:14.030Z,44.48
2019-01-24T09:00:45.466Z,51.08
2019-01-24T09:03:17.409Z,49.55
2019-01-24T09:05:48.977Z,52.23
2019-01-24T09:08:20.115Z,51.53
2019-01-24T09:10:51.668Z,61.13
2019-01-24T09:13:22.853Z,53.23
2019-01-24T09:15:54.135Z,46.92
2019-01-24T09:18:30.015Z,57.48
2019-01-24T09:21:01.357Z,50.15
2019-01-24T09:23:32.455Z,56.80
2019-01-24T09:26:03.592Z,50.45
2019-01-24T09:28:34.741Z,56.98
2019-01-24T09:31:05.941Z,60.80
2019-01-24T09:33:37.447Z,62.88
2019-01-24T09:36:08.639Z,68.25
2019-01-24T09:38:39.751Z,65.28
2019-01-24T09:41:10.951Z,70.62
2019-01-24T09:43:42.081Z,62.90
2019-01-24T09:46:13.667Z,63.42
2019-01-24T09:48:44.722Z,57.80
2019-01-24T09:51:15.927Z,56.65
2019-01-24T09:53:47.083Z,61.40
2019-01-24T09:56:18.179Z,55.08
2019-01-24T09:58:49.271Z,65.65
2019-01-24T10:01:20.693Z,64.27
2019-01-24T10:03:51.995Z,57.38
2019-01-24T10:06:23.091Z,54.70
2019-01-24T10:08:54.175Z,58.30
2019-01-24T10:11:25.567Z,52.95
2019-01-24T10:13:57.017Z,56.23
2019-01-24T10:16:28.126Z,52.15
2019-01-24T10:18:59.284Z,54.38
2019-01-24T10:21:30.652Z,69.60
2019-01-24T10:24:02.051Z,62.40
2019-01-24T10:26:34.447Z,60.45
2019-01-24T10:29:05.843Z,54.27
2019-01-24T10:31:37.051Z,63.25
2019-01-24T10:34:08.362Z,59.83
2019-01-24T10:36:43.151Z,52.48
2019-01-24T10:39:12.484Z,46.60
2019-01-24T10:41:43.670Z,49.35
2019-01-24T10:44:14.897Z,51.05
2019-01-24T10:46:46.033Z,44.83
2019-01-24T10:49:17.143Z,47.35
2019-01-24T10:51:48.328Z,44.55
2019-01-24T10:54:19.816Z,47.20
2019-01-24T10:56:50.903Z,49.08
2019-01-24T10:59:22.033Z,47.30
2019-01-24T11:01:53.404Z,48.33
2019-01-24T11:04:24.482Z,43.87
2019-01-24T11:06:55.781Z,43.38
2019-01-24T11:09:26.915Z,46.10
2019-01-24T11:11:58.167Z,45.60
2019-01-24T11:14:29.603Z,42.78
2019-01-24T11:17:00.696Z,38.83
2019-01-24T11:19:31.851Z,40.58
2019-01-24T11:22:02.971Z,39.83
2019-01-24T11:24:34.055Z,37.03
2019-01-24T11:27:05.383Z,40.55
2019-01-24T11:29:36.931Z,36.93
2019-01-24T11:32:08.526Z,38.30
2019-01-24T11:34:40.007Z,37.90
2019-01-24T11:37:11.145Z,44.55
2019-01-24T11:39:42.309Z,42.05
2019-01-24T11:42:13.445Z,39.92
2019-01-24T11:44:45.035Z,35.20
2019-01-24T11:47:16.161Z,42.05
2019-01-24T11:49:47.511Z,34.10
2019-01-24T11:52:18.680Z,31.60
2019-01-24T11:54:49.905Z,32.85
2019-01-24T11:57:21.085Z,35.13
2019-01-24T11:59:52.171Z,32.30
2019-01-24T12:02:23.641Z,37.40
2019-01-24T12:04:54.735Z,41.73
2019-01-24T12:07:26.028Z,38.20
2019-01-24T12:10:00.540Z,38.38
2019-01-24T12:12:31.802Z,41.65
2019-01-24T12:15:03.165Z,40.78
2019-01-24T12:17:34.627Z,40.30
2019-01-24T12:20:08.299Z,40.63
2019-01-24T12:22:39.712Z,38.40
2019-01-24T12:25:11.409Z,44.88
2019-01-24T12:27:42.871Z,39.48
2019-01-24T12:30:29.368Z,41.40
2019-01-24T12:33:01.127Z,42.10
2019-01-24T12:35:32.226Z,37.23
2019-01-24T12:38:03.330Z,40.65
2019-01-24T12:40:34.419Z,41.75
2019-01-24T12:43:05.940Z,39.88
2019-01-24T12:45:38.100Z,43.15
2019-01-24T12:48:09.525Z,45.08
2019-01-24T12:50:40.600Z,47.78
2019-01-24T12:53:11.786Z,46.23
2019-01-24T12:55:42.923Z,49.20
2019-01-24T12:58:14.117Z,45.85
2019-01-24T13:00:45.617Z,47.50
2019-01-24T13:03:16.905Z,43.57
2019-01-24T13:05:48.401Z,47.00
2019-01-24T13:08:19.663Z,44.53
2019-01-24T13:10:50.797Z,53.67
2019-01-24T13:13:21.875Z,54.93
2019-01-24T13:15:53.100Z,46.87
2019-01-24T13:18:24.243Z,52.17
2019-01-24T13:20:55.387Z,48.00
2019-01-24T13:23:26.553Z,43.95
2019-01-24T13:25:57.689Z,45.75
2019-01-24T13:28:28.889Z,52.98
2019-01-24T13:31:00.523Z,47.40
2019-01-24T13:33:31.766Z,44.35
2019-01-24T13:36:03.407Z,39.33
2019-01-24T13:38:34.811Z,53.23
2019-01-24T13:41:06.075Z,53.70
2019-01-24T13:43:37.297Z,48.63
2019-01-24T13:46:08.671Z,41.55
2019-01-24T13:48:39.848Z,48.02
2019-01-24T13:51:11.106Z,53.20
2019-01-24T13:53:42.299Z,49.00
2019-01-24T13:56:13.571Z,52.80
2019-01-24T13:58:44.780Z,52.75
2019-01-24T14:01:15.881Z,50.65
2019-01-24T14:03:52.260Z,51.23
2019-01-24T14:06:23.657Z,46.35
2019-01-24T14:08:55.077Z,52.53
2019-01-24T14:11:26.383Z,52.45
2019-01-24T14:13:57.684Z,42.65
2019-01-24T14:16:28.937Z,43.98
2019-01-24T14:19:00.121Z,45.73
2019-01-24T14:21:31.413Z,44.88
2019-01-24T14:24:02.613Z,49.42
2019-01-24T14:26:34.087Z,47.23
2019-01-24T14:29:05.305Z,41.77
2019-01-24T14:31:36.601Z,46.65
2019-01-24T14:34:07.993Z,50.88
2019-01-24T14:36:39.534Z,46.53
2019-01-24T14:39:11.403Z,47.15
2019-01-24T14:41:42.959Z,40.23
2019-01-24T14:44:14.311Z,42.13
2019-01-24T14:46:46.139Z,38.15
2019-01-24T14:49:36.266Z,44.15
2019-01-24T14:52:07.984Z,42.23
2019-01-24T14:54:39.432Z,37.95
2019-01-24T14:57:10.785Z,43.03
2019-01-24T14:59:41.955Z,37.35
2019-01-24T15:02:13.089Z,39.43
2019-01-24T15:04:44.432Z,47.43
2019-01-24T15:07:15.733Z,41.50
2019-01-24T15:09:47.069Z,41.02
2019-01-24T15:12:18.173Z,37.10
2019-01-24T15:14:49.413Z,40.92
2019-01-24T15:17:41.037Z,46.18
2019-01-24T15:20:12.663Z,43.05
2019-01-24T15:22:44.114Z,46.60
2019-01-24T15:25:15.549Z,39.93
2019-01-24T15:27:47.047Z,45.37
2019-01-24T15:30:21.128Z,44.77
2019-01-24T15:32:53.490Z,42.73
2019-01-24T15:35:24.699Z,31.97
2019-01-24T15:37:55.959Z,39.80
2019-01-24T15:40:29.473Z,41.05
2019-01-24T15:43:00.932Z,44.53
2019-01-24T15:45:32.237Z,43.50
2019-01-24T15:48:03.461Z,55.38
2019-01-24T15:50:34.684Z,41.80
2019-01-24T15:53:06.191Z,48.13
2019-01-24T15:55:37.423Z,50.95
2019-01-24T15:58:08.512Z,41.70
2019-01-24T16:00:39.730Z,48.98
2019-01-24T16:03:11.816Z,43.58
2019-01-24T16:05:43.366Z,44.70
2019-01-24T16:08:14.537Z,44.70
2019-01-24T16:10:45.705Z,51.80
2019-01-24T16:13:16.779Z,57.75
2019-01-24T16:15:47.995Z,44.15
2019-01-24T16:18:19.085Z,50.05
2019-01-24T16:20:50.311Z,48.05
2019-01-24T16:23:21.454Z,45.63
2019-01-24T16:25:52.676Z,44.08
2019-01-24T16:28:24.788Z,50.08
2019-01-24T16:30:56.714Z,46.00
2019-01-24T16:33:28.217Z,39.30
2019-01-24T16:35:59.442Z,41.98
2019-01-24T16:38:30.626Z,45.30
2019-01-24T16:41:01.818Z,41.77
2019-01-24T16:43:32.923Z,48.10
2019-01-24T16:46:04.249Z,46.88
2019-01-24T16:48:35.417Z,44.05
2019-01-24T16:51:06.583Z,48.20
2019-01-24T16:53:37.766Z,38.53
2019-01-24T16:56:08.950Z,47.17
2019-01-24T16:58:40.159Z,44.27
2019-01-24T17:01:17.817Z,42.40
2019-01-24T17:03:49.055Z,43.45
2019-01-24T17:06:20.557Z,36.50
2019-01-24T17:08:52.819Z,40.50
2019-01-24T17:11:24.154Z,38.25
2019-01-24T17:13:55.319Z,35.55
2019-01-24T17:16:26.462Z,39.92
2019-01-24T17:18:57.645Z,42.33
2019-01-24T17:21:28.833Z,36.13
2019-01-24T17:24:00.125Z,42.17
2019-01-24T17:26:31.308Z,32.63
2019-01-24T17:29:02.534Z,42.50
2019-01-24T17:31:35.051Z,39.48
2019-01-24T17:34:06.336Z,43.48
2019-01-24T17:36:42.617Z,37.33
2019-01-24T17:39:14.177Z,39.48
2019-01-24T17:41:45.508Z,46.80
2019-01-24T17:44:16.584Z,43.63
2019-01-24T17:46:47.751Z,46.23
2019-01-24T17:49:19.241Z,49.05
2019-01-24T17:51:50.403Z,47.67
2019-01-24T17:54:21.630Z,42.98
2019-01-24T17:56:52.897Z,42.73
2019-01-24T17:59:24.159Z,45.48
2019-01-24T18:01:55.389Z,43.98
2019-01-24T18:04:26.667Z,47.10
2019-01-24T18:06:58.012Z,41.95
2019-01-24T18:09:29.272Z,43.87
2019-01-24T18:12:00.500Z,49.67
2019-01-24T18:14:31.763Z,45.45
2019-01-24T18:17:03.015Z,56.42
2019-01-24T18:19:34.106Z,47.13
2019-01-24T18:22:24.287Z,51.75
2019-01-24T18:24:57.092Z,45.90
2019-01-24T18:27:28.502Z,49.35
2019-01-24T18:29:59.661Z,46.23
2019-01-24T18:32:43.040Z,53.25
2019-01-24T18:35:14.201Z,45.52
2019-01-24T18:37:45.340Z,49.38
2019-01-24T18:40:18.602Z,44.20
2019-01-24T18:42:51.309Z,48.80
2019-01-24T18:45:28.761Z,43.10
2019-01-24T18:47:59.937Z,44.60
2019-01-24T18:50:31.796Z,49.42
2019-01-24T18:53:02.945Z,41.85
2019-01-24T18:55:34.065Z,41.60
2019-01-24T18:58:05.713Z,45.92
2019-01-24T19:00:43.109Z,44.75
2019-01-24T19:03:15.385Z,49.70
2019-01-24T19:05:46.831Z,38.83
2019-01-24T19:08:18.387Z,42.10
2019-01-24T19:10:49.545Z,45.40
2019-01-24T19:13:20.983Z,40.88
2019-01-24T19:15:52.249Z,53.20
2019-01-24T19:18:23.499Z,25.57
2019-01-24T19:20:54.771Z,28.32
2019-01-24T19:23:25.914Z,37.53
2019-01-24T19:25:57.140Z,30.77
2019-01-24T19:28:28.266Z,30.80
2019-01-24T19:30:59.403Z,25.57
2019-01-24T19:33:30.723Z,26.97
2019-01-24T19:36:01.903Z,23.60
2019-01-24T19:38:33.192Z,31.70
2019-01-24T19:41:04.304Z,22.73
2019-01-24T19:43:35.455Z,27.13
2019-01-24T19:46:06.652Z,28.85
2019-01-24T19:48:37.789Z,28.35
2019-01-24T19:51:08.911Z,31.33
2019-01-24T19:53:40.283Z,26.23
2019-01-24T19:56:11.519Z,25.97
2019-01-24T19:58:42.704Z,28.15
2019-01-24T20:01:13.884Z,26.17
2019-01-24T20:03:45.129Z,30.05
2019-01-24T20:06:16.285Z,26.93
2019-01-24T20:08:47.679Z,24.55
2019-01-24T20:11:18.912Z,28.60
2019-01-24T20:13:49.995Z,29.23
2019-01-24T20:16:21.155Z,28.62
2019-01-24T20:18:52.538Z,31.07
2019-01-24T20:21:24.587Z,31.17
2019-01-24T20:23:55.781Z,25.20
2019-01-24T20:26:26.986Z,31.12
2019-01-24T20:28:58.090Z,27.80
2019-01-24T20:31:29.275Z,28.85
2019-01-24T20:34:01.592Z,29.45
2019-01-24T20:36:32.743Z,32.17
2019-01-24T20:39:07.497Z,30.23
2019-01-24T20:41:38.985Z,33.33
2019-01-24T20:44:10.136Z,28.98
2019-01-24T20:46:41.251Z,32.67
2019-01-24T20:49:12.480Z,36.17
2019-01-24T20:51:43.681Z,35.40
2019-01-24T20:54:15.183Z,38.38
2019-01-24T20:56:46.313Z,36.77
2019-01-24T20:59:17.471Z,34.58
2019-01-24T21:01:48.685Z,31.90
2019-01-24T21:04:19.875Z,33.50
2019-01-24T21:06:51.107Z,35.83
2019-01-24T21:09:22.443Z,37.23
2019-01-24T21:11:53.561Z,31.45
2019-01-24T21:14:24.729Z,31.37
2019-01-24T21:16:55.851Z,32.05
2019-01-24T21:19:26.942Z,33.23
2019-01-24T21:21:58.115Z,47.73
2019-01-24T21:24:29.193Z,35.50
2019-01-24T21:27:00.443Z,32.95
2019-01-24T21:29:31.499Z,37.55
2019-01-24T21:32:02.587Z,32.50
2019-01-24T21:34:33.679Z,36.60
2019-01-24T21:37:04.863Z,35.55
2019-01-24T21:39:36.075Z,30.62
2019-01-24T21:42:07.219Z,33.98
2019-01-24T21:44:38.419Z,28.62
2019-01-24T21:47:09.672Z,28.67
2019-01-24T21:49:40.764Z,36.30
2019-01-24T21:52:11.839Z,30.27
2019-01-24T21:54:43.073Z,32.55
2019-01-24T21:57:14.272Z,36.53
2019-01-24T21:59:45.411Z,34.35
2019-01-24T22:02:16.489Z,35.43
2019-01-24T22:04:47.595Z,34.18
2019-01-24T22:07:18.761Z,34.83
2019-01-24T22:09:49.928Z,33.83
2019-01-24T22:12:21.072Z,38.55
2019-01-24T22:14:52.199Z,36.23
2019-01-24T22:17:23.271Z,40.45
2019-01-24T22:19:54.429Z,37.30
2019-01-24T22:22:25.479Z,43.83
2019-01-24T22:24:56.608Z,40.80
2019-01-24T22:27:27.775Z,36.85
2019-01-24T22:29:58.863Z,36.42
2019-01-24T22:32:29.952Z,30.82
2019-01-24T22:35:01.063Z,30.43
2019-01-24T22:37:32.189Z,36.50
2019-01-24T22:40:03.389Z,41.00
2019-01-24T22:42:34.520Z,36.58
2019-01-24T22:45:08.580Z,40.65
2019-01-24T22:47:39.739Z,37.48
2019-01-24T22:50:12.935Z,36.85
2019-01-24T22:52:44.056Z,36.63
2019-01-24T22:55:15.136Z,41.08
2019-01-24T22:57:46.287Z,39.15
2019-01-24T23:00:52.425Z,42.17
2019-01-24T23:03:31.019Z,39.67
2019-01-24T23:06:02.155Z,36.58
2019-01-24T23:08:33.277Z,40.92
2019-01-24T23:11:05.103Z,36.15
2019-01-24T23:13:36.211Z,37.23
2019-01-24T23:16:07.349Z,37.50
2019-01-24T23:18:38.459Z,39.15
2019-01-24T23:21:09.667Z,43.73
2019-01-24T23:23:40.765Z,37.30
2019-01-24T23:26:11.907Z,37.60
2019-01-24T23:28:43.081Z,35.52
2019-01-24T23:31:14.139Z,38.90
2019-01-24T23:33:45.222Z,33.58
2019-01-24T23:36:16.340Z,38.42
2019-01-24T23:38:47.415Z,40.73
2019-01-24T23:41:18.524Z,39.27
2019-01-24T23:43:49.583Z,37.65
2019-01-24T23:46:20.749Z,39.80
2019-01-24T23:48:51.811Z,44.58
2019-01-24T23:51:22.922Z,39.95
2019-01-24T23:53:54.190Z,40.00
2019-01-24T23:56:25.351Z,45.50
2019-01-24T23:58:57.483Z,43.00
